createdAt,value
2022-11-16T00:01:32.774Z,4.05
2022-11-16T00:04:01.247Z,3.65
2022-11-16T00:06:28.831Z,3.75
2022-11-16T00:09:17.081Z,4.17
2022-11-16T00:11:51.097Z,3.60
2022-11-16T00:14:18.624Z,4.45
2022-11-16T00:16:45.097Z,4.07
2022-11-16T00:19:15.314Z,3.75
2022-11-16T00:21:42.133Z,3.93
2022-11-16T00:24:12.271Z,3.75
2022-11-16T00:26:38.703Z,3.70
2022-11-16T00:29:05.122Z,4.00
2022-11-16T00:31:31.550Z,4.20
2022-11-16T00:33:57.941Z,4.43
2022-11-16T00:36:24.327Z,4.05
2022-11-16T00:38:53.718Z,4.90
2022-11-16T00:41:20.066Z,4.13
2022-11-16T00:43:46.491Z,4.05
2022-11-16T00:46:12.868Z,4.63
2022-11-16T00:48:39.361Z,4.10
2022-11-16T00:51:06.003Z,4.00
2022-11-16T00:53:32.465Z,4.20
2022-11-16T00:55:59.109Z,3.55
2022-11-16T00:58:25.589Z,4.07
2022-11-16T01:00:51.985Z,3.83
2022-11-16T01:03:18.488Z,3.90
2022-11-16T01:05:44.967Z,4.20
2022-11-16T01:08:11.582Z,3.90
2022-11-16T01:10:42.047Z,4.17
2022-11-16T01:13:08.499Z,3.95
2022-11-16T01:15:34.870Z,3.65
2022-11-16T01:18:01.250Z,3.67
2022-11-16T01:20:29.592Z,4.10
2022-11-16T01:22:56.386Z,3.70
2022-11-16T01:25:22.787Z,4.00
2022-11-16T01:27:50.861Z,3.50
2022-11-16T01:30:17.373Z,3.80
2022-11-16T01:32:43.829Z,3.22
2022-11-16T01:35:16.378Z,4.57
2022-11-16T01:37:42.811Z,4.20
2022-11-16T01:40:10.459Z,4.20
2022-11-16T01:42:36.871Z,3.42
2022-11-16T01:45:15.040Z,3.83
2022-11-16T01:47:48.858Z,3.87
2022-11-16T01:50:18.793Z,4.10
2022-11-16T01:53:05.872Z,3.55
2022-11-16T01:55:35.613Z,3.97
2022-11-16T01:58:02.777Z,3.53
2022-11-16T02:00:30.491Z,3.40
2022-11-16T02:02:56.974Z,3.75
2022-11-16T02:05:40.195Z,3.53
2022-11-16T02:08:46.366Z,3.60
2022-11-16T02:11:33.191Z,3.65
2022-11-16T02:14:13.023Z,3.50
2022-11-16T02:16:55.728Z,3.22
2022-11-16T02:19:36.051Z,3.55
2022-11-16T02:22:27.182Z,3.10
2022-11-16T02:24:59.533Z,3.10
2022-11-16T02:27:50.246Z,3.10
2022-11-16T02:30:18.901Z,3.30
2022-11-16T02:32:52.396Z,3.42
2022-11-16T02:35:28.631Z,3.42
2022-11-16T02:38:02.859Z,3.00
2022-11-16T02:40:31.895Z,2.93
2022-11-16T02:43:04.176Z,3.13
2022-11-16T02:45:36.345Z,3.03
2022-11-16T02:48:11.653Z,3.05
2022-11-16T02:50:39.135Z,3.22
2022-11-16T02:53:08.585Z,3.17
2022-11-16T02:55:36.329Z,3.17
2022-11-16T02:58:06.933Z,2.97
2022-11-16T03:00:43.806Z,2.97
2022-11-16T03:03:19.898Z,3.05
2022-11-16T03:06:04.774Z,2.60
2022-11-16T03:08:36.281Z,3.03
2022-11-16T03:11:25.125Z,2.83
2022-11-16T03:13:57.491Z,2.30
2022-11-16T03:16:31.770Z,2.80
2022-11-16T03:19:02.340Z,2.80
2022-11-16T03:21:58.043Z,2.72
2022-11-16T03:24:25.095Z,3.20
2022-11-16T03:27:13.107Z,2.53
2022-11-16T03:29:54.316Z,2.40
2022-11-16T03:32:30.333Z,3.00
2022-11-16T03:35:02.510Z,2.67
2022-11-16T03:37:31.265Z,2.72
2022-11-16T03:40:01.164Z,2.65
2022-11-16T03:42:28.690Z,2.22
2022-11-16T03:44:58.962Z,2.37
2022-11-16T03:47:25.367Z,2.50
2022-11-16T03:49:51.733Z,2.20
2022-11-16T03:52:18.788Z,2.38
2022-11-16T03:54:47.420Z,2.05
2022-11-16T03:57:18.077Z,2.10
2022-11-16T03:59:45.509Z,2.00
2022-11-16T04:02:12.042Z,2.10
2022-11-16T04:04:57.186Z,2.30
2022-11-16T04:07:42.077Z,2.60
2022-11-16T04:10:28.795Z,2.10
2022-11-16T04:13:14.587Z,2.35
2022-11-16T04:15:59.907Z,2.15
2022-11-16T04:18:44.640Z,2.08
2022-11-16T04:21:50.298Z,2.10
2022-11-16T04:24:21.846Z,2.20
2022-11-16T04:27:15.449Z,2.03
2022-11-16T04:29:48.008Z,2.17
2022-11-16T04:32:33.450Z,1.90
2022-11-16T04:35:18.421Z,2.30
2022-11-16T04:37:52.364Z,2.20
2022-11-16T04:40:21.253Z,2.00
2022-11-16T04:42:58.383Z,2.05
2022-11-16T04:45:44.498Z,2.22
2022-11-16T04:48:11.529Z,2.28
2022-11-16T04:50:38.395Z,2.17
2022-11-16T04:53:05.907Z,1.70
2022-11-16T04:55:33.171Z,1.77
2022-11-16T04:58:00.430Z,1.63
2022-11-16T05:00:26.841Z,1.95
2022-11-16T05:02:58.198Z,2.03
2022-11-16T05:05:27.301Z,1.92
2022-11-16T05:07:53.768Z,1.90
2022-11-16T05:10:20.126Z,2.00
2022-11-16T05:12:46.524Z,2.10
2022-11-16T05:15:12.917Z,1.80
2022-11-16T05:17:39.710Z,1.58
2022-11-16T05:20:25.231Z,1.75
2022-11-16T05:22:55.855Z,1.70
2022-11-16T05:25:22.534Z,1.98
2022-11-16T05:27:49.074Z,1.60
2022-11-16T05:30:17.748Z,1.80
2022-11-16T05:32:46.905Z,1.58
2022-11-16T05:35:13.372Z,1.55
2022-11-16T05:37:39.814Z,1.50
2022-11-16T05:40:07.458Z,1.77
2022-11-16T05:42:33.930Z,1.60
2022-11-16T05:45:00.430Z,1.70
2022-11-16T05:47:26.884Z,1.42
2022-11-16T05:49:53.296Z,1.88
2022-11-16T05:52:21.691Z,2.00
2022-11-16T05:54:48.136Z,1.67
2022-11-16T05:57:15.455Z,1.40
2022-11-16T05:59:42.638Z,2.00
2022-11-16T06:02:09.157Z,1.88
2022-11-16T06:04:38.768Z,1.70
2022-11-16T06:07:05.363Z,1.80
2022-11-16T06:09:31.929Z,1.73
2022-11-16T06:11:58.287Z,1.95
2022-11-16T06:14:24.780Z,3.05
2022-11-16T06:16:53.691Z,4.60
2022-11-16T06:19:20.247Z,3.80
2022-11-16T06:21:46.626Z,4.30
2022-11-16T06:24:13.193Z,4.03
2022-11-16T06:26:39.729Z,3.85
2022-11-16T06:29:09.125Z,3.93
2022-11-16T06:31:35.502Z,3.72
2022-11-16T06:34:01.895Z,3.53
2022-11-16T06:36:28.737Z,4.22
2022-11-16T06:38:55.212Z,4.78
2022-11-16T06:41:24.468Z,4.80
2022-11-16T06:43:50.974Z,5.25
2022-11-16T06:46:19.832Z,4.40
2022-11-16T06:48:46.305Z,5.53
2022-11-16T06:51:12.704Z,4.97
2022-11-16T06:53:39.194Z,4.87
2022-11-16T06:56:06.696Z,4.68
2022-11-16T06:58:33.957Z,5.53
2022-11-16T07:01:08.263Z,5.20
2022-11-16T07:03:34.769Z,4.82
2022-11-16T07:06:09.530Z,5.40
2022-11-16T07:08:36.845Z,5.10
2022-11-16T07:11:07.071Z,4.65
2022-11-16T07:13:34.559Z,4.85
2022-11-16T07:16:11.686Z,4.63
2022-11-16T07:18:40.704Z,4.00
2022-11-16T07:21:07.945Z,4.47
2022-11-16T07:23:34.826Z,5.00
2022-11-16T07:26:03.175Z,4.00
2022-11-16T07:28:30.163Z,3.80
2022-11-16T07:31:02.495Z,3.70
2022-11-16T07:33:29.642Z,3.47
2022-11-16T07:36:09.991Z,3.40
2022-11-16T07:38:36.672Z,3.83
2022-11-16T07:41:11.673Z,3.95
2022-11-16T07:43:38.117Z,4.40
2022-11-16T07:46:45.359Z,5.20
2022-11-16T07:48:51.452Z,4.53
2022-11-16T07:51:18.934Z,3.70
2022-11-16T07:53:48.421Z,4.47
2022-11-16T07:56:14.846Z,3.70
2022-11-16T07:58:41.206Z,3.25
2022-11-16T08:01:11.390Z,3.40
2022-11-16T08:03:41.062Z,3.30
2022-11-16T08:06:11.703Z,3.10
2022-11-16T08:08:38.308Z,2.60
2022-11-16T08:11:07.867Z,2.78
2022-11-16T08:13:35.745Z,2.65
2022-11-16T08:16:03.942Z,2.35
2022-11-16T08:18:31.830Z,1.88
2022-11-16T08:21:00.117Z,2.33
2022-11-16T08:23:26.537Z,2.03
2022-11-16T08:25:57.535Z,2.10
2022-11-16T08:28:24.240Z,2.05
2022-11-16T08:30:54.036Z,1.98
2022-11-16T08:33:24.410Z,1.90
2022-11-16T08:35:52.095Z,1.83
2022-11-16T08:38:18.607Z,1.73
2022-11-16T08:40:50.842Z,1.85
2022-11-16T08:43:17.312Z,1.58
2022-11-16T08:45:48.451Z,1.67
2022-11-16T08:48:14.860Z,1.35
2022-11-16T08:51:02.386Z,1.80
2022-11-16T08:53:27.818Z,1.35
2022-11-16T08:55:54.279Z,1.83
2022-11-16T08:58:20.685Z,1.67
2022-11-16T09:00:47.133Z,1.98
2022-11-16T09:03:13.532Z,1.85
2022-11-16T09:05:40.291Z,1.40
2022-11-16T09:08:10.733Z,1.88
2022-11-16T09:10:37.759Z,1.70
2022-11-16T09:13:04.252Z,1.75
2022-11-16T09:15:31.756Z,1.25
2022-11-16T09:17:58.578Z,1.42
2022-11-16T09:20:28.143Z,1.40
2022-11-16T09:22:54.544Z,1.87
2022-11-16T09:25:27.289Z,1.30
2022-11-16T09:27:59.839Z,1.60
2022-11-16T09:30:26.224Z,1.30
2022-11-16T09:32:52.632Z,1.23
2022-11-16T09:35:20.908Z,0.93
2022-11-16T09:37:47.475Z,1.30
2022-11-16T09:40:14.051Z,1.25
2022-11-16T09:42:52.577Z,1.50
2022-11-16T09:45:31.701Z,1.10
2022-11-16T09:48:06.083Z,1.20
2022-11-16T09:50:47.194Z,1.17
2022-11-16T09:53:20.728Z,1.10
2022-11-16T09:56:21.900Z,1.02
2022-11-16T09:59:07.768Z,1.80
2022-11-16T10:01:41.606Z,1.10
2022-11-16T10:04:15.856Z,1.25
2022-11-16T10:07:04.041Z,1.00
2022-11-16T10:09:30.730Z,0.77
2022-11-16T10:12:35.552Z,1.10
2022-11-16T10:15:12.772Z,1.40
2022-11-16T10:18:20.032Z,1.20
2022-11-16T10:20:56.848Z,1.40
2022-11-16T10:23:49.862Z,1.20
2022-11-16T10:26:22.285Z,1.10
2022-11-16T10:29:00.908Z,1.00
2022-11-16T10:31:37.721Z,1.10
2022-11-16T10:34:09.539Z,1.00
2022-11-16T10:36:37.605Z,1.55
2022-11-16T10:39:13.368Z,1.00
2022-11-16T10:41:46.492Z,0.83
2022-11-16T10:44:34.240Z,1.30
2022-11-16T10:47:04.817Z,1.30
2022-11-16T11:02:21.552Z,1.00
2022-11-16T11:05:20.391Z,1.52
2022-11-16T11:07:56.844Z,0.88
2022-11-16T11:10:33.975Z,1.10
2022-11-16T11:13:12.763Z,2.15
2022-11-16T11:15:41.700Z,1.07
2022-11-16T11:18:20.600Z,1.10
2022-11-16T11:21:04.048Z,1.10
2022-11-16T11:23:36.975Z,1.25
2022-11-16T11:26:03.715Z,1.40
2022-11-16T11:28:36.431Z,0.73
2022-11-16T11:31:25.948Z,0.93
2022-11-16T11:33:57.285Z,0.95
2022-11-16T11:36:27.384Z,1.02
2022-11-16T11:39:01.784Z,1.00
2022-11-16T11:41:33.576Z,1.00
2022-11-16T11:44:17.845Z,1.00
2022-11-16T11:49:52.262Z,1.15
2022-11-16T11:52:28.500Z,1.00
2022-11-16T11:54:56.188Z,0.70
2022-11-16T11:57:24.953Z,0.60
2022-11-16T11:59:54.910Z,1.13
2022-11-16T12:02:38.393Z,0.73
2022-11-16T12:05:34.915Z,0.70
2022-11-16T12:08:24.573Z,0.70
2022-11-16T12:10:57.955Z,0.80
2022-11-16T12:13:43.147Z,0.90
2022-11-16T12:16:34.840Z,0.77
2022-11-16T12:19:39.575Z,1.00
2022-11-16T12:22:30.393Z,0.70
2022-11-16T12:25:34.474Z,0.70
2022-11-16T12:28:06.984Z,0.80
2022-11-16T12:30:51.331Z,0.82
2022-11-16T12:33:37.366Z,0.77
2022-11-16T12:36:22.547Z,0.90
2022-11-16T12:39:23.824Z,0.70
2022-11-16T12:41:59.166Z,1.00
2022-11-16T12:44:51.908Z,0.70
2022-11-16T12:47:31.518Z,0.50
2022-11-16T12:50:04.174Z,1.70
2022-11-16T12:52:39.930Z,0.60
2022-11-16T12:55:43.084Z,0.70
2022-11-16T12:58:35.758Z,0.60
2022-11-16T13:01:26.099Z,0.73
2022-11-16T13:03:55.904Z,0.90
2022-11-16T13:06:33.128Z,1.45
2022-11-16T13:09:17.291Z,0.75
2022-11-16T13:11:53.660Z,0.55
2022-11-16T13:14:41.978Z,0.93
2022-11-16T13:17:14.665Z,0.73
2022-11-16T13:19:43.776Z,0.57
2022-11-16T13:22:27.712Z,0.63
2022-11-16T13:25:14.709Z,0.73
2022-11-16T13:27:49.898Z,0.52
2022-11-16T13:30:22.523Z,0.70
2022-11-16T13:33:18.361Z,0.90
2022-11-16T13:35:44.817Z,0.70
2022-11-16T13:38:13.308Z,1.17
2022-11-16T13:40:40.924Z,0.68
2022-11-16T13:43:10.110Z,0.70
2022-11-16T13:45:48.843Z,0.70
2022-11-16T13:48:22.204Z,0.85
2022-11-16T13:50:59.485Z,0.70
2022-11-16T13:56:17.854Z,0.93
2022-11-16T13:58:58.361Z,0.85
2022-11-16T14:01:26.713Z,0.88
2022-11-16T14:04:31.700Z,0.70
2022-11-16T14:07:02.580Z,0.63
2022-11-16T14:09:53.932Z,0.47
2022-11-16T14:12:43.398Z,0.68
2022-11-16T14:15:17.573Z,0.60
2022-11-16T14:18:04.556Z,0.70
2022-11-16T14:20:56.997Z,0.73
2022-11-16T14:23:36.456Z,0.60
2022-11-16T14:26:02.882Z,0.70
2022-11-16T14:28:44.470Z,0.75
2022-11-16T14:31:47.997Z,0.68
2022-11-16T14:34:22.214Z,0.45
2022-11-16T14:36:52.555Z,0.60
2022-11-16T14:39:37.817Z,0.63
2022-11-16T14:42:15.157Z,0.50
2022-11-16T14:44:42.350Z,0.60
2022-11-16T14:47:25.402Z,0.63
2022-11-16T14:49:53.256Z,0.63
2022-11-16T14:52:30.175Z,0.60
2022-11-16T14:55:01.791Z,0.57
2022-11-16T14:57:28.506Z,0.55
2022-11-16T15:00:17.849Z,0.60
2022-11-16T15:02:51.814Z,0.73
2022-11-16T15:05:27.056Z,0.50
2022-11-16T15:07:56.597Z,0.70
2022-11-16T15:10:28.480Z,0.73
2022-11-16T15:12:57.724Z,0.65
2022-11-16T15:15:27.236Z,0.60
2022-11-16T15:17:59.633Z,0.70
2022-11-16T15:20:29.017Z,0.80
2022-11-16T15:22:58.517Z,0.90
2022-11-16T15:25:24.960Z,0.60
2022-11-16T15:27:51.836Z,0.80
2022-11-16T15:30:25.048Z,0.60
2022-11-16T15:32:53.000Z,0.70
2022-11-16T15:35:30.647Z,0.70
2022-11-16T15:38:47.186Z,0.90
2022-11-16T15:41:19.657Z,0.80
2022-11-16T15:44:13.223Z,0.98
2022-11-16T15:46:41.395Z,0.80
2022-11-16T15:49:32.302Z,0.75
2022-11-16T15:52:00.819Z,0.73
2022-11-16T15:54:29.475Z,1.10
2022-11-16T15:57:11.671Z,1.27
2022-11-16T15:59:38.184Z,1.10
2022-11-16T16:02:04.851Z,0.80
2022-11-16T16:04:37.424Z,1.08
2022-11-16T16:07:04.138Z,0.90
2022-11-16T16:09:40.017Z,1.08
2022-11-16T16:12:23.142Z,1.10
2022-11-16T16:14:51.534Z,1.05
2022-11-16T16:17:29.911Z,1.25
2022-11-16T16:20:06.607Z,1.10
2022-11-16T16:22:36.319Z,1.25
2022-11-16T16:25:06.900Z,1.17
2022-11-16T16:27:39.703Z,1.23
2022-11-16T16:30:14.545Z,1.25
2022-11-16T16:32:41.067Z,1.17
2022-11-16T16:35:15.138Z,1.30
2022-11-16T16:37:41.482Z,1.13
2022-11-16T16:40:08.557Z,1.10
2022-11-16T16:42:35.092Z,1.90
2022-11-16T16:45:02.429Z,2.50
2022-11-16T16:47:29.075Z,3.50
2022-11-16T16:49:55.660Z,3.40
2022-11-16T16:52:22.166Z,3.70
2022-11-16T16:54:48.530Z,3.00
2022-11-16T16:57:16.531Z,2.60
2022-11-16T16:59:46.390Z,2.58
2022-11-16T17:02:13.059Z,2.65
2022-11-16T17:04:41.703Z,2.13
2022-11-16T17:07:08.072Z,2.35
2022-11-16T17:09:34.665Z,1.90
2022-11-16T17:12:01.027Z,1.77
2022-11-16T17:14:27.403Z,2.13
2022-11-16T17:17:02.762Z,2.40
2022-11-16T17:19:29.920Z,1.65
2022-11-16T17:21:56.363Z,1.30
2022-11-16T17:24:22.924Z,1.80
2022-11-16T17:26:49.499Z,1.67
2022-11-16T17:29:16.203Z,1.63
2022-11-16T17:31:44.759Z,1.55
2022-11-16T17:34:13.689Z,1.43
2022-11-16T17:36:44.004Z,1.50
2022-11-16T17:39:10.605Z,1.40
2022-11-16T17:41:37.449Z,1.30
2022-11-16T17:44:04.977Z,1.58
2022-11-16T17:46:31.921Z,1.47
2022-11-16T17:48:58.503Z,1.48
2022-11-16T17:51:25.957Z,1.30
2022-11-16T17:53:52.897Z,1.15
2022-11-16T17:56:27.613Z,1.40
2022-11-16T17:58:58.491Z,1.50
2022-11-16T18:01:26.077Z,1.60
2022-11-16T18:03:52.578Z,1.38
2022-11-16T18:06:20.848Z,1.60
2022-11-16T18:08:48.202Z,1.77
2022-11-16T18:11:19.533Z,1.47
2022-11-16T18:13:46.855Z,1.65
2022-11-16T18:16:15.013Z,2.00
2022-11-16T18:18:43.877Z,2.05
2022-11-16T18:21:14.598Z,2.17
2022-11-16T18:23:48.126Z,1.60
2022-11-16T18:26:16.836Z,2.03
2022-11-16T18:28:47.384Z,2.03
2022-11-16T18:31:16.047Z,2.00
2022-11-16T18:33:49.400Z,1.65
2022-11-16T18:36:16.748Z,1.90
2022-11-16T18:38:43.183Z,1.73
2022-11-16T18:41:12.252Z,1.92
2022-11-16T18:43:39.613Z,1.75
2022-11-16T18:46:06.423Z,1.90
2022-11-16T18:48:33.232Z,2.23
2022-11-16T18:51:05.847Z,2.17
2022-11-16T18:53:33.045Z,3.55
2022-11-16T18:55:59.732Z,3.55
2022-11-16T19:01:16.579Z,4.90
2022-11-16T19:03:43.736Z,3.90
2022-11-16T19:06:10.727Z,4.00
2022-11-16T19:08:39.041Z,2.45
2022-11-16T19:11:11.478Z,2.85
2022-11-16T19:13:41.080Z,2.10
2022-11-16T19:16:11.465Z,2.13
2022-11-16T19:18:37.959Z,1.98
2022-11-16T19:21:08.837Z,1.98
2022-11-16T19:23:40.052Z,2.25
2022-11-16T19:26:07.264Z,1.67
2022-11-16T19:28:41.866Z,2.00
2022-11-16T19:31:10.911Z,1.70
2022-11-16T19:33:37.742Z,1.63
2022-11-16T19:36:07.420Z,1.60
2022-11-16T19:38:36.211Z,1.37
2022-11-16T19:41:02.684Z,1.75
2022-11-16T19:43:30.660Z,1.50
2022-11-16T19:46:05.226Z,1.92
2022-11-16T19:48:32.534Z,1.30
2022-11-16T19:51:10.171Z,1.87
2022-11-16T19:53:37.668Z,1.33
2022-11-16T19:56:05.959Z,1.30
2022-11-16T19:58:34.405Z,1.50
2022-11-16T20:01:06.269Z,1.70
2022-11-16T20:03:33.793Z,1.43
2022-11-16T20:06:08.146Z,1.50
2022-11-16T20:08:35.456Z,1.63
2022-11-16T20:11:01.958Z,1.10
2022-11-16T20:13:28.381Z,1.50
2022-11-16T20:15:54.795Z,1.60
2022-11-16T20:18:21.205Z,1.20
2022-11-16T20:20:47.869Z,1.48
2022-11-16T20:23:15.540Z,1.55
2022-11-16T20:25:41.936Z,1.48
2022-11-16T20:28:09.472Z,1.37
2022-11-16T20:30:36.004Z,1.35
2022-11-16T20:33:02.338Z,1.45
2022-11-16T20:35:28.802Z,1.40
2022-11-16T20:37:55.370Z,1.35
2022-11-16T20:40:21.882Z,1.43
2022-11-16T20:42:48.372Z,1.55
2022-11-16T20:45:14.939Z,1.40
2022-11-16T20:47:41.447Z,1.55
2022-11-16T20:50:08.219Z,1.23
2022-11-16T20:52:38.287Z,1.50
2022-11-16T20:55:09.301Z,1.17
2022-11-16T20:57:35.708Z,1.40
2022-11-16T21:00:02.059Z,1.48
2022-11-16T21:02:28.678Z,1.10
2022-11-16T21:05:00.075Z,1.37
2022-11-16T21:07:29.152Z,1.42
2022-11-16T21:10:14.189Z,1.48
2022-11-16T21:12:58.992Z,1.60
2022-11-16T21:15:25.384Z,1.60
2022-11-16T21:17:51.851Z,1.57
2022-11-16T21:20:27.407Z,1.30
2022-11-16T21:22:54.487Z,1.27
2022-11-16T21:25:20.954Z,1.50
2022-11-16T21:27:47.378Z,1.58
2022-11-16T21:30:14.156Z,1.37
2022-11-16T21:32:40.556Z,1.60
2022-11-16T21:35:07.550Z,1.70
2022-11-16T21:37:33.871Z,1.60
2022-11-16T21:40:00.308Z,1.63
2022-11-16T21:42:26.691Z,1.57
2022-11-16T21:44:53.035Z,1.63
2022-11-16T21:47:20.973Z,1.75
2022-11-16T21:50:16.484Z,1.48
2022-11-16T21:52:33.973Z,1.60
2022-11-16T21:55:00.442Z,1.43
2022-11-16T21:57:27.070Z,1.67
2022-11-16T21:59:53.574Z,1.38
2022-11-16T22:02:20.067Z,1.30
2022-11-16T22:05:05.160Z,1.30
2022-11-16T22:07:36.565Z,1.43
2022-11-16T22:10:09.842Z,1.55
2022-11-16T22:12:36.941Z,1.60
2022-11-16T22:15:05.527Z,1.77
2022-11-16T22:17:32.219Z,2.13
2022-11-16T22:19:58.784Z,1.30
2022-11-16T22:22:25.361Z,1.33
2022-11-16T22:24:52.066Z,1.60
2022-11-16T22:27:18.930Z,1.42
2022-11-16T22:29:48.289Z,1.90
2022-11-16T22:32:14.614Z,1.50
2022-11-16T22:34:43.279Z,1.70
2022-11-16T22:37:09.609Z,1.42
2022-11-16T22:39:36.707Z,1.55
2022-11-16T22:42:03.861Z,1.27
2022-11-16T22:44:30.389Z,1.80
2022-11-16T22:46:56.770Z,1.67
2022-11-16T22:49:23.405Z,1.80
2022-11-16T22:51:49.822Z,1.60
2022-11-16T22:54:16.203Z,1.60
2022-11-16T22:56:42.891Z,1.80
2022-11-16T22:59:09.774Z,1.27
2022-11-16T23:01:37.162Z,1.60
2022-11-16T23:04:04.188Z,1.80
2022-11-16T23:06:30.755Z,2.25
2022-11-16T23:08:57.185Z,1.63
2022-11-16T23:11:45.319Z,1.67
2022-11-16T23:14:32.672Z,2.15
2022-11-16T23:16:59.492Z,1.42
2022-11-16T23:19:48.238Z,1.40
2022-11-16T23:22:39.694Z,1.57
2022-11-16T23:25:26.881Z,1.60
2022-11-16T23:28:03.587Z,1.75
2022-11-16T23:30:29.936Z,1.42
2022-11-16T23:32:56.586Z,1.65
2022-11-16T23:35:23.230Z,1.33
2022-11-16T23:37:58.021Z,1.67
2022-11-16T23:40:27.370Z,1.70
2022-11-16T23:43:13.352Z,1.70
2022-11-16T23:45:40.943Z,2.08
2022-11-16T23:48:09.117Z,1.67
2022-11-16T23:50:36.311Z,1.63
2022-11-16T23:53:03.160Z,2.25
2022-11-16T23:55:31.494Z,1.50
2022-11-16T23:57:57.864Z,1.73
